createdAt,value
2023-01-27T00:00:07.843Z,1009.31
2023-01-27T00:00:34.236Z,1009.41
2023-01-27T00:00:55.295Z,1009.41
2023-01-27T00:01:27.835Z,1009.41
2023-01-27T00:01:59.230Z,1009.41
2023-01-27T00:02:31.362Z,1009.41
2023-01-27T00:03:03.888Z,1009.51
2023-01-27T00:03:34.363Z,1009.21
2023-01-27T00:04:23.878Z,1009.21
2023-01-27T00:04:41.137Z,1009.41
2023-01-27T00:05:11.389Z,1009.41
2023-01-27T00:05:34.310Z,1009.21
2023-01-27T00:05:59.364Z,1009.21
2023-01-27T00:06:31.957Z,1009.21
2023-01-27T00:07:03.280Z,1009.41
2023-01-27T00:07:35.044Z,1009.41
2023-01-27T00:08:07.188Z,1009.41
2023-01-27T00:08:34.312Z,1009.31
2023-01-27T00:08:55.214Z,1009.31
2023-01-27T00:09:27.215Z,1009.31
2023-01-27T00:10:00.327Z,1009.31
2023-01-27T00:10:31.256Z,1009.31
2023-01-27T00:11:04.016Z,1009.41
2023-01-27T00:11:35.099Z,1009.41
2023-01-27T00:12:08.514Z,1009.41
2023-01-27T00:12:34.761Z,1009.31
2023-01-27T00:12:55.220Z,1009.31
2023-01-27T00:13:27.361Z,1009.31
2023-01-27T00:13:59.183Z,1009.31
2023-01-27T00:14:31.222Z,1009.31
2023-01-27T00:15:03.328Z,1009.21
2023-01-27T00:15:34.294Z,1009.31
2023-01-27T00:16:07.277Z,1009.31
2023-01-27T00:16:34.267Z,1009.51
2023-01-27T00:16:55.332Z,1009.51
2023-01-27T00:17:28.836Z,1009.51
2023-01-27T00:18:15.374Z,1009.51
2023-01-27T00:18:34.251Z,1009.21
2023-01-27T00:19:03.226Z,1009.21
2023-01-27T00:19:35.121Z,1009.41
2023-01-27T00:20:07.331Z,1009.41
2023-01-27T00:20:34.227Z,1009.21
2023-01-27T00:20:55.330Z,1009.21
2023-01-27T00:21:27.205Z,1009.21
2023-01-27T00:22:00.112Z,1009.31
2023-01-27T00:22:31.214Z,1009.31
2023-01-27T00:23:03.960Z,1009.51
2023-01-27T00:23:34.340Z,1009.31
2023-01-27T00:23:51.303Z,1009.31
2023-01-27T00:24:23.269Z,1009.31
2023-01-27T00:24:40.382Z,1009.31
2023-01-27T00:25:11.989Z,1009.31
2023-01-27T00:25:34.244Z,1009.41
2023-01-27T00:25:59.378Z,1009.41
2023-01-27T00:26:31.233Z,1009.41
2023-01-27T00:27:03.205Z,1009.51
2023-01-27T00:27:36.549Z,1009.51
2023-01-27T00:28:07.216Z,1009.51
2023-01-27T00:28:34.221Z,1009.31
2023-01-27T00:28:55.176Z,1009.31
2023-01-27T00:29:27.917Z,1009.31
2023-01-27T00:29:59.175Z,1009.51
2023-01-27T00:30:32.203Z,1009.51
2023-01-27T00:31:03.228Z,1009.51
2023-01-27T00:31:35.216Z,1009.31
2023-01-27T00:32:07.190Z,1009.31
2023-01-27T00:32:34.288Z,1009.62
2023-01-27T00:32:55.257Z,1009.62
2023-01-27T00:33:27.177Z,1009.62
2023-01-27T00:34:00.003Z,1009.41
2023-01-27T00:34:31.255Z,1009.41
2023-01-27T00:35:04.107Z,1009.41
2023-01-27T00:35:34.690Z,1009.62
2023-01-27T00:35:51.312Z,1009.62
2023-01-27T00:36:23.235Z,1009.62
2023-01-27T00:36:40.292Z,1009.51
2023-01-27T00:37:11.955Z,1009.51
2023-01-27T00:37:34.293Z,1009.31
2023-01-27T00:37:59.212Z,1009.31
2023-01-27T00:38:31.237Z,1009.31
2023-01-27T00:39:03.212Z,1009.72
2023-01-27T00:39:34.292Z,1009.51
2023-01-27T00:40:07.307Z,1009.51
2023-01-27T00:40:34.285Z,1009.41
2023-01-27T00:40:55.360Z,1009.41
2023-01-27T00:41:27.908Z,1009.41
2023-01-27T00:41:59.234Z,1009.41
2023-01-27T00:42:31.913Z,1009.41
2023-01-27T00:43:03.189Z,1009.31
2023-01-27T00:43:35.856Z,1009.31
2023-01-27T00:44:07.365Z,1009.31
2023-01-27T00:44:34.301Z,1009.31
2023-01-27T00:44:55.484Z,1009.31
2023-01-27T00:45:27.380Z,1009.31
2023-01-27T00:46:00.024Z,1009.41
2023-01-27T00:46:31.262Z,1009.41
2023-01-27T00:47:04.023Z,1009.51
2023-01-27T00:47:34.281Z,1009.62
2023-01-27T00:48:07.863Z,1009.62
2023-01-27T00:48:34.238Z,1009.62
2023-01-27T00:48:55.262Z,1009.62
2023-01-27T00:49:27.230Z,1009.62
2023-01-27T00:49:59.213Z,1009.51
2023-01-27T00:50:31.406Z,1009.51
2023-01-27T00:51:03.186Z,1009.41
2023-01-27T00:51:34.262Z,1009.21
2023-01-27T00:51:51.364Z,1009.21
2023-01-27T00:52:23.864Z,1009.21
2023-01-27T00:52:41.070Z,1009.41
2023-01-27T00:53:11.205Z,1009.41
2023-01-27T00:53:34.271Z,1009.62
2023-01-27T00:53:59.279Z,1009.62
2023-01-27T00:54:31.950Z,1009.62
2023-01-27T00:55:03.406Z,1009.51
2023-01-27T00:55:35.167Z,1009.31
2023-01-27T00:56:07.175Z,1009.31
2023-01-27T00:56:34.960Z,1009.51
2023-01-27T00:56:55.187Z,1009.51
2023-01-27T00:57:27.238Z,1009.51
2023-01-27T00:58:00.839Z,1009.31
2023-01-27T00:58:31.209Z,1009.31
2023-01-27T00:59:03.938Z,1009.51
2023-01-27T00:59:34.259Z,1009.31
2023-01-27T01:00:08.354Z,1009.31
2023-01-27T01:00:34.273Z,1009.62
2023-01-27T01:00:55.740Z,1009.62
2023-01-27T01:01:27.271Z,1009.62
2023-01-27T01:01:59.266Z,1009.62
2023-01-27T01:02:31.465Z,1009.62
2023-01-27T01:03:03.261Z,1009.51
2023-01-27T01:03:34.530Z,1009.62
2023-01-27T01:03:51.095Z,1009.62
2023-01-27T01:04:23.879Z,1009.62
2023-01-27T01:04:41.103Z,1009.21
2023-01-27T01:05:11.351Z,1009.21
2023-01-27T01:05:34.240Z,1009.21
2023-01-27T01:05:59.327Z,1009.21
2023-01-27T01:06:32.128Z,1009.21
2023-01-27T01:07:03.196Z,1009.41
2023-01-27T01:07:35.001Z,1009.31
2023-01-27T01:08:07.523Z,1009.31
2023-01-27T01:08:34.311Z,1009.41
2023-01-27T01:08:55.323Z,1009.41
2023-01-27T01:09:27.238Z,1009.41
2023-01-27T01:09:59.843Z,1009.31
2023-01-27T01:10:31.386Z,1009.31
2023-01-27T01:11:05.034Z,1009.41
2023-01-27T01:11:34.248Z,1009.41
2023-01-27T01:12:07.908Z,1009.41
2023-01-27T01:12:34.281Z,1009.51
2023-01-27T01:12:55.217Z,1009.51
2023-01-27T01:13:27.168Z,1009.51
2023-01-27T01:13:59.237Z,1009.51
2023-01-27T01:14:31.276Z,1009.51
2023-01-27T01:15:03.394Z,1009.51
2023-01-27T01:15:34.291Z,1009.51
2023-01-27T01:16:07.267Z,1009.51
2023-01-27T01:16:34.277Z,1009.51
2023-01-27T01:16:55.193Z,1009.51
2023-01-27T01:17:27.924Z,1009.51
2023-01-27T01:17:59.203Z,1009.51
2023-01-27T01:18:31.961Z,1009.51
2023-01-27T01:19:03.219Z,1009.72
2023-01-27T01:19:34.985Z,1009.62
2023-01-27T01:20:07.354Z,1009.62
2023-01-27T01:20:34.293Z,1009.62
2023-01-27T01:20:55.320Z,1009.62
2023-01-27T01:21:27.252Z,1009.62
2023-01-27T01:21:59.848Z,1009.51
2023-01-27T01:22:31.279Z,1009.51
2023-01-27T01:23:03.914Z,1009.72
2023-01-27T01:23:34.445Z,1009.82
2023-01-27T01:24:06.724Z,1009.82
2023-01-27T01:24:23.874Z,1009.82
2023-01-27T01:24:41.140Z,1009.51
2023-01-27T01:25:11.387Z,1009.51
2023-01-27T01:25:34.359Z,1009.72
2023-01-27T01:25:59.406Z,1009.72
2023-01-27T01:26:31.943Z,1009.72
2023-01-27T01:27:03.196Z,1009.51
2023-01-27T01:27:35.164Z,1009.92
2023-01-27T01:28:07.231Z,1009.92
2023-01-27T01:28:34.284Z,1009.51
2023-01-27T01:28:55.240Z,1009.51
2023-01-27T01:29:27.214Z,1009.51
2023-01-27T01:29:59.939Z,1009.62
2023-01-27T01:30:31.546Z,1009.62
2023-01-27T01:31:04.259Z,1009.62
2023-01-27T01:31:34.309Z,1009.62
2023-01-27T01:32:07.894Z,1009.62
2023-01-27T01:32:34.255Z,1009.72
2023-01-27T01:32:55.697Z,1009.72
2023-01-27T01:33:27.172Z,1009.72
2023-01-27T01:33:59.235Z,1009.82
2023-01-27T01:34:31.264Z,1009.82
2023-01-27T01:35:03.344Z,1009.82
2023-01-27T01:35:34.247Z,1009.62
2023-01-27T01:36:07.507Z,1009.62
2023-01-27T01:36:34.982Z,1009.72
2023-01-27T01:36:55.250Z,1009.72
2023-01-27T01:37:27.219Z,1009.72
2023-01-27T01:37:59.170Z,1009.62
2023-01-27T01:38:31.286Z,1009.62
2023-01-27T01:39:03.191Z,1009.82
2023-01-27T01:39:34.259Z,1009.92
2023-01-27T01:40:08.185Z,1009.92
2023-01-27T01:40:34.751Z,1009.72
2023-01-27T01:40:55.377Z,1009.72
2023-01-27T01:41:27.693Z,1009.72
2023-01-27T01:41:59.185Z,1009.92
2023-01-27T01:42:32.220Z,1009.92
2023-01-27T01:43:03.203Z,1009.62
2023-01-27T01:43:40.034Z,1009.82
2023-01-27T01:44:07.269Z,1009.82
2023-01-27T01:44:34.248Z,1009.92
2023-01-27T01:44:55.237Z,1009.92
2023-01-27T01:45:27.461Z,1009.92
2023-01-27T01:46:00.968Z,1009.72
2023-01-27T01:46:31.331Z,1009.72
2023-01-27T01:47:03.799Z,1009.92
2023-01-27T01:47:34.865Z,1009.82
2023-01-27T01:48:08.960Z,1009.82
2023-01-27T01:48:34.281Z,1009.82
2023-01-27T01:48:55.207Z,1009.82
2023-01-27T01:49:27.202Z,1009.82
2023-01-27T01:49:59.213Z,1009.92
2023-01-27T01:50:31.431Z,1009.92
2023-01-27T01:51:03.206Z,1009.82
2023-01-27T01:51:36.429Z,1009.62
2023-01-27T01:52:07.255Z,1009.62
2023-01-27T01:52:34.266Z,1009.82
2023-01-27T01:52:55.210Z,1009.82
2023-01-27T01:53:27.210Z,1009.82
2023-01-27T01:53:59.791Z,1009.82
2023-01-27T01:54:31.250Z,1009.82
2023-01-27T01:55:04.170Z,1009.72
2023-01-27T01:55:34.284Z,1009.92
2023-01-27T01:56:07.984Z,1009.92
2023-01-27T01:56:34.276Z,1009.72
2023-01-27T01:56:55.246Z,1009.72
2023-01-27T01:57:27.184Z,1009.72
2023-01-27T01:57:59.193Z,1009.51
2023-01-27T01:58:31.298Z,1009.51
2023-01-27T01:59:03.177Z,1009.72
2023-01-27T01:59:34.766Z,1009.92
2023-01-27T01:59:51.300Z,1009.92
2023-01-27T02:00:24.209Z,1009.92
2023-01-27T02:00:41.158Z,1009.62
2023-01-27T02:01:11.290Z,1009.62
2023-01-27T02:01:34.391Z,1009.72
2023-01-27T02:01:59.340Z,1009.72
2023-01-27T02:02:31.349Z,1009.72
2023-01-27T02:03:03.974Z,1009.82
2023-01-27T02:03:34.698Z,1009.82
2023-01-27T02:03:51.266Z,1009.82
2023-01-27T02:04:23.197Z,1009.82
2023-01-27T02:04:40.306Z,1009.82
2023-01-27T02:05:12.462Z,1009.82
2023-01-27T02:05:34.285Z,1009.92
2023-01-27T02:05:59.339Z,1009.92
2023-01-27T02:06:31.212Z,1009.92
2023-01-27T02:07:03.208Z,1009.92
2023-01-27T02:07:34.294Z,1009.82
2023-01-27T02:08:07.245Z,1009.82
2023-01-27T02:08:34.528Z,1009.82
2023-01-27T02:08:55.187Z,1009.82
2023-01-27T02:09:28.229Z,1009.82
2023-01-27T02:09:59.241Z,1009.82
2023-01-27T02:10:32.183Z,1009.82
2023-01-27T02:11:03.239Z,1009.82
2023-01-27T02:11:35.561Z,1009.51
2023-01-27T02:12:07.238Z,1009.51
2023-01-27T02:12:34.320Z,1009.62
2023-01-27T02:12:55.214Z,1009.62
2023-01-27T02:13:27.201Z,1009.62
2023-01-27T02:14:00.187Z,1009.82
2023-01-27T02:14:31.268Z,1009.82
2023-01-27T02:15:04.142Z,1009.82
2023-01-27T02:15:34.297Z,1009.72
2023-01-27T02:16:07.923Z,1009.72
2023-01-27T02:16:34.413Z,1009.72
2023-01-27T02:16:55.233Z,1009.72
2023-01-27T02:17:27.209Z,1009.72
2023-01-27T02:17:59.209Z,1009.72
2023-01-27T02:18:31.230Z,1009.72
2023-01-27T02:19:03.214Z,1009.72
2023-01-27T02:19:34.294Z,1009.92
2023-01-27T02:20:07.684Z,1009.92
2023-01-27T02:20:34.280Z,1009.72
2023-01-27T02:20:55.372Z,1009.72
2023-01-27T02:21:27.911Z,1009.72
2023-01-27T02:21:59.220Z,1009.72
2023-01-27T02:22:47.713Z,1009.82
2023-01-27T02:23:19.245Z,1009.82
2023-01-27T02:23:51.326Z,1009.82
2023-01-27T02:24:23.347Z,1009.82
2023-01-27T02:24:40.359Z,1009.82
2023-01-27T02:25:12.221Z,1009.82
2023-01-27T02:25:34.321Z,1010.02
2023-01-27T02:25:59.375Z,1010.02
2023-01-27T02:26:31.320Z,1010.02
2023-01-27T02:27:03.213Z,1009.72
2023-01-27T02:27:34.294Z,1009.82
2023-01-27T02:28:07.217Z,1009.82
2023-01-27T02:28:34.289Z,1009.82
2023-01-27T02:28:55.201Z,1009.82
2023-01-27T02:29:27.700Z,1009.82
2023-01-27T02:29:59.200Z,1009.62
2023-01-27T02:30:32.412Z,1009.62
2023-01-27T02:31:03.266Z,1009.92
2023-01-27T02:31:35.398Z,1009.72
2023-01-27T02:32:07.311Z,1009.72
2023-01-27T02:32:34.803Z,1009.62
2023-01-27T02:32:55.218Z,1009.62
2023-01-27T02:33:27.236Z,1009.62
2023-01-27T02:33:59.931Z,1009.72
2023-01-27T02:34:31.276Z,1009.72
2023-01-27T02:35:05.105Z,1009.62
2023-01-27T02:35:34.301Z,1009.82
2023-01-27T02:36:07.982Z,1009.82
2023-01-27T02:36:34.357Z,1009.62
2023-01-27T02:36:55.220Z,1009.62
2023-01-27T02:37:27.216Z,1009.62
2023-01-27T02:37:59.212Z,1009.62
2023-01-27T02:38:31.296Z,1009.62
2023-01-27T02:39:03.227Z,1009.62
2023-01-27T02:39:34.430Z,1009.72
2023-01-27T02:39:51.372Z,1009.72
2023-01-27T02:40:25.003Z,1009.72
2023-01-27T02:40:55.221Z,1009.51
2023-01-27T02:41:32.725Z,1009.51
2023-01-27T02:41:59.208Z,1009.82
2023-01-27T02:42:31.308Z,1009.82
2023-01-27T02:43:03.411Z,1009.62
2023-01-27T02:43:34.400Z,1009.92
2023-01-27T02:44:08.076Z,1009.92
2023-01-27T02:44:35.054Z,1009.72
2023-01-27T02:44:55.191Z,1009.72
2023-01-27T02:45:27.452Z,1009.72
2023-01-27T02:45:59.273Z,1009.92
2023-01-27T02:46:31.341Z,1009.92
2023-01-27T02:47:03.228Z,1009.82
2023-01-27T02:47:34.509Z,1009.62
2023-01-27T02:48:06.658Z,1009.62
2023-01-27T02:48:25.033Z,1009.62
2023-01-27T02:48:42.077Z,1009.72
2023-01-27T02:49:11.276Z,1009.72
2023-01-27T02:49:34.296Z,1009.92
2023-01-27T02:49:59.217Z,1009.92
2023-01-27T02:50:32.164Z,1009.92
2023-01-27T02:51:03.239Z,1009.92
2023-01-27T02:51:35.084Z,1010.02
2023-01-27T02:52:07.256Z,1010.02
2023-01-27T02:52:34.309Z,1009.72
2023-01-27T02:52:55.254Z,1009.72
2023-01-27T02:53:27.235Z,1009.72
2023-01-27T02:53:59.911Z,1009.72
2023-01-27T02:54:31.293Z,1009.72
2023-01-27T02:55:04.862Z,1009.72
2023-01-27T02:55:34.318Z,1009.82
2023-01-27T02:56:08.922Z,1009.82
2023-01-27T02:56:34.796Z,1009.72
2023-01-27T02:56:55.221Z,1009.72
2023-01-27T02:57:27.294Z,1009.72
2023-01-27T02:57:59.196Z,1009.92
2023-01-27T02:58:31.320Z,1009.92
2023-01-27T02:59:03.194Z,1009.72
2023-01-27T02:59:34.276Z,1009.92
2023-01-27T03:00:07.534Z,1009.92
2023-01-27T03:00:34.296Z,1009.72
2023-01-27T03:00:55.447Z,1009.72
2023-01-27T03:01:30.090Z,1009.72
2023-01-27T03:01:59.196Z,1009.92
2023-01-27T03:02:31.982Z,1009.92
2023-01-27T03:03:03.205Z,1010.02
2023-01-27T03:03:38.073Z,1009.72
2023-01-27T03:04:07.279Z,1009.72
2023-01-27T03:04:34.363Z,1009.72
2023-01-27T03:04:55.249Z,1009.72
2023-01-27T03:05:27.348Z,1009.72
2023-01-27T03:06:01.749Z,1009.72
2023-01-27T03:06:31.267Z,1009.72
2023-01-27T03:07:04.015Z,1010.02
2023-01-27T03:07:34.320Z,1009.82
2023-01-27T03:08:07.931Z,1009.82
2023-01-27T03:08:34.304Z,1009.72
2023-01-27T03:08:55.213Z,1009.72
2023-01-27T03:09:27.226Z,1009.72
2023-01-27T03:09:59.220Z,1009.92
2023-01-27T03:10:31.423Z,1009.92
2023-01-27T03:11:03.185Z,1009.92
2023-01-27T03:11:34.298Z,1009.62
2023-01-27T03:12:07.229Z,1009.62
2023-01-27T03:12:34.759Z,1009.72
2023-01-27T03:12:55.603Z,1009.72
2023-01-27T03:13:28.052Z,1009.72
2023-01-27T03:13:59.285Z,1009.82
2023-01-27T03:14:31.996Z,1009.82
2023-01-27T03:15:03.478Z,1009.92
2023-01-27T03:15:36.451Z,1009.82
2023-01-27T03:16:07.312Z,1009.82
2023-01-27T03:16:34.299Z,1009.92
2023-01-27T03:16:55.219Z,1009.92
2023-01-27T03:17:27.215Z,1009.92
2023-01-27T03:17:59.847Z,1009.92
2023-01-27T03:18:31.285Z,1009.92
2023-01-27T03:19:04.058Z,1009.92
2023-01-27T03:19:34.282Z,1009.82
2023-01-27T03:20:08.352Z,1009.82
2023-01-27T03:20:34.284Z,1009.82
2023-01-27T03:20:55.583Z,1009.82
2023-01-27T03:21:27.237Z,1009.82
2023-01-27T03:21:59.237Z,1009.82
2023-01-27T03:22:31.409Z,1009.82
2023-01-27T03:23:03.310Z,1009.92
2023-01-27T03:23:34.317Z,1009.62
2023-01-27T03:24:07.318Z,1009.62
2023-01-27T03:24:34.350Z,1009.92
2023-01-27T03:24:55.229Z,1009.92
2023-01-27T03:25:28.160Z,1009.92
2023-01-27T03:25:59.197Z,1009.72
2023-01-27T03:26:35.145Z,1009.72
2023-01-27T03:27:03.232Z,1009.82
2023-01-27T03:27:34.329Z,1009.72
2023-01-27T03:27:51.983Z,1009.72
2023-01-27T03:28:23.293Z,1009.72
2023-01-27T03:28:40.345Z,1009.72
2023-01-27T03:29:11.290Z,1009.72
2023-01-27T03:29:34.412Z,1009.82
2023-01-27T03:29:59.926Z,1009.82
2023-01-27T03:30:31.602Z,1009.82
2023-01-27T03:31:05.020Z,1009.82
2023-01-27T03:31:34.386Z,1009.72
2023-01-27T03:32:06.460Z,1009.72
2023-01-27T03:32:23.843Z,1009.72
2023-01-27T03:32:41.009Z,1009.72
2023-01-27T03:33:11.369Z,1009.72
2023-01-27T03:33:34.356Z,1010.02
2023-01-27T03:33:59.211Z,1010.02
2023-01-27T03:34:31.940Z,1010.02
2023-01-27T03:35:03.380Z,1009.82
2023-01-27T03:35:35.168Z,1009.92
2023-01-27T03:36:07.284Z,1009.92
2023-01-27T03:36:34.968Z,1010.12
2023-01-27T03:36:55.243Z,1010.12
2023-01-27T03:37:27.223Z,1010.12
2023-01-27T03:37:59.977Z,1009.92
2023-01-27T03:38:31.583Z,1009.92
2023-01-27T03:39:04.252Z,1010.02
2023-01-27T03:39:34.790Z,1009.82
2023-01-27T03:39:51.343Z,1009.82
2023-01-27T03:40:23.554Z,1009.82
2023-01-27T03:40:40.364Z,1010.02
2023-01-27T03:41:12.159Z,1010.02
2023-01-27T03:41:34.789Z,1009.82
2023-01-27T03:41:59.255Z,1009.82
2023-01-27T03:42:31.294Z,1009.82
2023-01-27T03:43:03.253Z,1009.92
2023-01-27T03:43:34.558Z,1009.92
2023-01-27T03:44:06.819Z,1009.92
2023-01-27T03:44:25.627Z,1009.92
2023-01-27T03:44:42.164Z,1009.82
2023-01-27T03:45:11.903Z,1009.82
2023-01-27T03:45:34.439Z,1010.02
2023-01-27T03:45:59.381Z,1010.02
2023-01-27T03:46:33.263Z,1010.02
2023-01-27T03:47:03.321Z,1009.92
2023-01-27T03:47:36.217Z,1009.82
2023-01-27T03:48:07.297Z,1009.82
2023-01-27T03:48:34.601Z,1010.02
2023-01-27T03:48:55.202Z,1010.02
2023-01-27T03:49:27.240Z,1010.02
2023-01-27T03:49:59.944Z,1010.02
2023-01-27T03:50:31.414Z,1010.02
2023-01-27T03:51:04.105Z,1009.92
2023-01-27T03:51:34.295Z,1010.12
2023-01-27T03:52:07.953Z,1010.12
2023-01-27T03:52:34.338Z,1010.23
2023-01-27T03:52:55.260Z,1010.23
2023-01-27T03:53:27.227Z,1010.23
2023-01-27T03:53:59.239Z,1009.92
2023-01-27T03:54:31.271Z,1009.92
2023-01-27T03:55:03.706Z,1010.02
2023-01-27T03:55:34.280Z,1010.23
2023-01-27T03:56:07.334Z,1010.23
2023-01-27T03:56:34.312Z,1010.12
2023-01-27T03:56:55.221Z,1010.12
2023-01-27T03:57:27.973Z,1010.12
2023-01-27T03:57:59.254Z,1010.12
2023-01-27T03:58:32.843Z,1010.12
2023-01-27T03:59:03.232Z,1010.12
2023-01-27T03:59:35.298Z,1010.02
2023-01-27T04:00:07.594Z,1010.02
2023-01-27T04:00:34.336Z,1010.23
2023-01-27T04:00:55.456Z,1010.23
2023-01-27T04:01:27.349Z,1010.23
2023-01-27T04:02:00.097Z,1010.12
2023-01-27T04:02:31.340Z,1010.12
2023-01-27T04:03:04.163Z,1010.23
2023-01-27T04:03:34.332Z,1010.12
2023-01-27T04:04:07.982Z,1010.12
2023-01-27T04:04:34.331Z,1010.02
2023-01-27T04:04:55.330Z,1010.02
2023-01-27T04:05:27.425Z,1010.02
2023-01-27T04:05:59.309Z,1010.12
2023-01-27T04:06:31.285Z,1010.12
2023-01-27T04:07:03.247Z,1010.02
2023-01-27T04:07:34.962Z,1010.23
2023-01-27T04:08:07.450Z,1010.23
2023-01-27T04:08:34.342Z,1010.02
2023-01-27T04:08:55.241Z,1010.02
2023-01-27T04:09:27.881Z,1010.02
2023-01-27T04:09:59.260Z,1010.23
2023-01-27T04:10:33.099Z,1010.23
2023-01-27T04:11:03.303Z,1010.33
2023-01-27T04:11:35.317Z,1010.23
2023-01-27T04:12:07.283Z,1010.23
2023-01-27T04:12:34.461Z,1010.23
2023-01-27T04:12:55.249Z,1010.23
2023-01-27T04:13:27.264Z,1010.23
2023-01-27T04:13:59.980Z,1010.23
2023-01-27T04:14:31.582Z,1010.23
2023-01-27T04:15:04.539Z,1010.23
2023-01-27T04:15:34.408Z,1010.23
2023-01-27T04:16:08.940Z,1010.23
2023-01-27T04:16:34.767Z,1010.23
2023-01-27T04:16:55.245Z,1010.23
2023-01-27T04:17:27.277Z,1010.23
2023-01-27T04:17:59.258Z,1010.43
2023-01-27T04:18:31.288Z,1010.43
2023-01-27T04:19:03.235Z,1010.43
2023-01-27T04:19:34.297Z,1010.33
2023-01-27T04:20:07.414Z,1010.33
2023-01-27T04:20:34.316Z,1010.43
2023-01-27T04:20:55.354Z,1010.43
2023-01-27T04:21:27.936Z,1010.43
2023-01-27T04:21:59.260Z,1010.73
2023-01-27T04:22:32.089Z,1010.73
2023-01-27T04:23:03.248Z,1010.43
2023-01-27T04:23:35.499Z,1010.53
2023-01-27T04:24:07.285Z,1010.53
2023-01-27T04:24:34.336Z,1010.33
2023-01-27T04:24:55.265Z,1010.33
2023-01-27T04:25:27.366Z,1010.33
2023-01-27T04:26:01.067Z,1010.23
2023-01-27T04:26:31.316Z,1010.23
2023-01-27T04:27:05.897Z,1010.43
2023-01-27T04:27:34.582Z,1010.43
2023-01-27T04:27:51.152Z,1010.43
2023-01-27T04:28:41.799Z,1010.43
2023-01-27T04:29:28.150Z,1010.43
2023-01-27T04:29:59.298Z,1010.53
2023-01-27T04:30:32.712Z,1010.53
2023-01-27T04:31:03.404Z,1010.53
2023-01-27T04:31:35.133Z,1010.53
2023-01-27T04:32:07.588Z,1010.53
2023-01-27T04:32:34.325Z,1010.43
2023-01-27T04:32:55.258Z,1010.43
2023-01-27T04:33:27.341Z,1010.43
2023-01-27T04:34:00.091Z,1010.63
2023-01-27T04:34:31.260Z,1010.63
2023-01-27T04:35:13.567Z,1010.63
2023-01-27T04:35:38.875Z,1010.63
2023-01-27T04:36:07.261Z,1010.63
2023-01-27T04:36:34.313Z,1010.63
2023-01-27T04:36:55.231Z,1010.63
2023-01-27T04:37:35.784Z,1010.53
2023-01-27T04:37:59.278Z,1010.53
2023-01-27T04:38:31.273Z,1010.53
2023-01-27T04:39:03.251Z,1010.63
2023-01-27T04:39:34.396Z,1010.73
2023-01-27T04:40:09.153Z,1010.73
2023-01-27T04:40:34.369Z,1010.43
2023-01-27T04:40:55.896Z,1010.43
2023-01-27T04:41:27.323Z,1010.43
2023-01-27T04:41:59.308Z,1010.53
2023-01-27T04:42:31.298Z,1010.53
2023-01-27T04:43:03.300Z,1010.63
2023-01-27T04:43:34.422Z,1010.53
2023-01-27T04:43:51.326Z,1010.53
2023-01-27T04:44:24.015Z,1010.53
2023-01-27T04:44:41.086Z,1010.73
2023-01-27T04:45:12.032Z,1010.73
2023-01-27T04:45:34.382Z,1010.63
2023-01-27T04:45:59.388Z,1010.63
2023-01-27T04:46:31.980Z,1010.63
2023-01-27T04:47:03.291Z,1010.63
2023-01-27T04:47:35.910Z,1010.73
2023-01-27T04:48:07.284Z,1010.73
2023-01-27T04:48:34.339Z,1010.73
2023-01-27T04:49:07.300Z,1010.73
2023-01-27T04:49:27.420Z,1010.73
2023-01-27T04:49:59.296Z,1010.63
2023-01-27T04:50:35.937Z,1010.63
2023-01-27T04:51:03.263Z,1010.73
2023-01-27T04:51:34.314Z,1010.63
2023-01-27T04:51:52.179Z,1010.63
2023-01-27T04:52:23.270Z,1010.63
2023-01-27T04:52:40.548Z,1010.63
2023-01-27T04:53:11.321Z,1010.63
2023-01-27T04:53:34.319Z,1010.63
2023-01-27T04:53:59.981Z,1010.63
2023-01-27T04:54:31.340Z,1010.63
2023-01-27T04:55:04.194Z,1010.73
2023-01-27T04:55:34.397Z,1010.73
2023-01-27T04:56:08.851Z,1010.73
2023-01-27T04:56:34.286Z,1010.73
2023-01-27T04:56:55.312Z,1010.73
2023-01-27T04:57:27.275Z,1010.73
2023-01-27T04:57:59.289Z,1010.84
2023-01-27T04:58:31.346Z,1010.84
2023-01-27T04:59:03.348Z,1010.84
2023-01-27T04:59:45.209Z,1010.73
2023-01-27T05:00:07.609Z,1010.73
2023-01-27T05:00:34.966Z,1010.84
2023-01-27T05:00:56.036Z,1010.84
2023-01-27T05:01:27.321Z,1010.84
2023-01-27T05:01:59.387Z,1010.63
2023-01-27T05:02:31.481Z,1010.63
2023-01-27T05:03:04.258Z,1010.84
2023-01-27T05:03:34.264Z,1010.63
2023-01-27T05:04:08.510Z,1010.63
2023-01-27T05:04:34.718Z,1010.73
2023-01-27T05:04:55.256Z,1010.73
2023-01-27T05:05:27.462Z,1010.73
2023-01-27T05:05:59.285Z,1010.84
2023-01-27T05:06:31.344Z,1010.84
2023-01-27T05:07:03.388Z,1010.73
2023-01-27T05:07:34.535Z,1010.84
2023-01-27T05:07:51.339Z,1010.84
2023-01-27T05:08:24.109Z,1010.84
2023-01-27T05:08:41.237Z,1010.73
2023-01-27T05:09:11.318Z,1010.73
2023-01-27T05:09:34.352Z,1010.94
2023-01-27T05:09:59.318Z,1010.94
2023-01-27T05:10:32.306Z,1010.94
2023-01-27T05:11:03.565Z,1010.84
2023-01-27T05:11:42.858Z,1010.73
2023-01-27T05:12:23.283Z,1010.73
2023-01-27T05:12:40.425Z,1010.73
2023-01-27T05:13:11.291Z,1010.73
2023-01-27T05:13:34.388Z,1010.84
2023-01-27T05:13:59.916Z,1010.84
2023-01-27T05:14:31.310Z,1010.84
2023-01-27T05:15:20.267Z,1010.84
2023-01-27T05:15:51.336Z,1010.94
2023-01-27T05:16:23.889Z,1010.94
2023-01-27T05:16:41.001Z,1010.73
2023-01-27T05:17:11.348Z,1010.73
2023-01-27T05:17:34.324Z,1010.84
2023-01-27T05:17:59.297Z,1010.84
2023-01-27T05:18:36.437Z,1010.84
2023-01-27T05:19:03.290Z,1010.94
2023-01-27T05:19:34.369Z,1010.63
2023-01-27T05:19:51.972Z,1010.63
2023-01-27T05:20:23.493Z,1010.63
2023-01-27T05:20:40.566Z,1010.73
2023-01-27T05:21:11.323Z,1010.73
2023-01-27T05:21:34.379Z,1010.84
2023-01-27T05:22:00.964Z,1010.84
2023-01-27T05:22:31.346Z,1010.84
2023-01-27T05:23:03.945Z,1010.84
2023-01-27T05:23:34.337Z,1010.73
2023-01-27T05:24:08.800Z,1010.73
2023-01-27T05:24:34.311Z,1010.94
2023-01-27T05:24:55.304Z,1010.94
2023-01-27T05:25:27.505Z,1010.94
2023-01-27T05:25:59.293Z,1010.84
2023-01-27T05:26:31.511Z,1010.84
2023-01-27T05:27:03.309Z,1010.84
2023-01-27T05:27:35.998Z,1010.84
2023-01-27T05:28:07.431Z,1010.84
2023-01-27T05:28:34.343Z,1010.73
2023-01-27T05:28:55.314Z,1010.73
2023-01-27T05:29:27.300Z,1010.73
2023-01-27T05:30:00.189Z,1010.84
2023-01-27T05:30:31.503Z,1010.84
2023-01-27T05:31:04.281Z,1010.63
2023-01-27T05:31:34.374Z,1010.73
2023-01-27T05:32:08.092Z,1010.73
2023-01-27T05:32:34.611Z,1010.84
2023-01-27T05:32:55.273Z,1010.84
2023-01-27T05:33:27.985Z,1010.84
2023-01-27T05:33:59.340Z,1010.84
2023-01-27T05:34:32.031Z,1010.84
2023-01-27T05:35:03.471Z,1010.94
2023-01-27T05:35:36.068Z,1010.84
2023-01-27T05:36:07.517Z,1010.84
2023-01-27T05:36:34.336Z,1010.84
2023-01-27T05:36:56.213Z,1010.84
2023-01-27T05:37:27.374Z,1010.84
2023-01-27T05:38:00.141Z,1010.94
2023-01-27T05:38:31.339Z,1010.94
2023-01-27T05:39:04.095Z,1010.84
2023-01-27T05:39:34.312Z,1010.94
2023-01-27T05:40:08.194Z,1010.94
2023-01-27T05:40:34.302Z,1010.53
2023-01-27T05:40:55.444Z,1010.53
2023-01-27T05:41:27.320Z,1010.53
2023-01-27T05:41:59.322Z,1010.84
2023-01-27T05:42:31.380Z,1010.84
2023-01-27T05:43:03.376Z,1010.84
2023-01-27T05:43:34.318Z,1010.84
2023-01-27T05:44:07.428Z,1010.84
2023-01-27T05:44:34.338Z,1011.04
2023-01-27T05:44:55.295Z,1011.04
2023-01-27T05:45:28.760Z,1011.04
2023-01-27T05:45:59.397Z,1010.63
2023-01-27T05:46:32.276Z,1010.63
2023-01-27T05:47:03.378Z,1010.84
2023-01-27T05:47:34.996Z,1011.04
2023-01-27T05:48:07.361Z,1011.04
2023-01-27T05:48:34.981Z,1010.84
2023-01-27T05:48:55.324Z,1010.84
2023-01-27T05:49:27.551Z,1010.84
2023-01-27T05:50:01.166Z,1010.73
2023-01-27T05:50:31.350Z,1010.73
2023-01-27T05:51:07.051Z,1010.84
2023-01-27T05:51:34.310Z,1010.84
2023-01-27T05:52:08.902Z,1010.84
2023-01-27T05:52:34.342Z,1010.63
2023-01-27T05:52:55.323Z,1010.63
2023-01-27T05:53:27.359Z,1010.63
2023-01-27T05:53:59.356Z,1010.73
2023-01-27T05:54:32.110Z,1010.73
2023-01-27T05:55:03.509Z,1010.84